createdAt,value
2023-03-29T00:00:41.201Z,2465.00
2023-03-29T00:01:41.251Z,2465.00
2023-03-29T00:02:41.332Z,2461.00
2023-03-29T00:03:41.373Z,2457.00
2023-03-29T00:04:41.417Z,2448.00
2023-03-29T00:05:41.398Z,2443.00
2023-03-29T00:06:41.394Z,2437.00
2023-03-29T00:07:41.392Z,2440.00
2023-03-29T00:08:41.423Z,2439.00
2023-03-29T00:09:41.416Z,2443.00
2023-03-29T00:10:41.434Z,2444.00
2023-03-29T00:11:41.458Z,2444.00
2023-03-29T00:12:41.481Z,2438.00
2023-03-29T00:13:41.508Z,2437.00
2023-03-29T00:14:41.546Z,2439.00
2023-03-29T00:15:41.580Z,2433.00
2023-03-29T00:16:41.670Z,2431.00
2023-03-29T00:17:41.691Z,2430.00
2023-03-29T00:18:41.628Z,2429.00
2023-03-29T00:19:41.619Z,2427.00
2023-03-29T00:20:41.599Z,2422.00
2023-03-29T00:21:41.569Z,2424.00
2023-03-29T00:22:41.535Z,2425.00
2023-03-29T00:23:42.102Z,2421.00
2023-03-29T00:24:41.486Z,2425.00
2023-03-29T00:25:41.468Z,2426.00
2023-03-29T00:26:41.435Z,2423.00
2023-03-29T00:27:41.481Z,2426.00
2023-03-29T00:28:41.503Z,2425.00
2023-03-29T00:29:41.526Z,2423.00
2023-03-29T00:30:41.552Z,2417.00
2023-03-29T00:31:41.602Z,2414.00
2023-03-29T00:32:41.701Z,2403.00
2023-03-29T00:33:41.623Z,2418.00
2023-03-29T00:34:41.631Z,2417.00
2023-03-29T00:35:41.655Z,2415.00
2023-03-29T00:36:41.647Z,2400.00
2023-03-29T00:37:41.674Z,2403.00
2023-03-29T00:38:41.676Z,2400.00
2023-03-29T00:39:41.689Z,2402.00
2023-03-29T00:40:41.704Z,2400.00
2023-03-29T00:41:41.738Z,2394.00
2023-03-29T00:42:41.770Z,2391.00
2023-03-29T00:43:41.776Z,2394.00
2023-03-29T00:44:41.783Z,2398.00
2023-03-29T00:45:41.809Z,2399.00
2023-03-29T00:46:41.818Z,2394.00
2023-03-29T00:47:41.837Z,2389.00
2023-03-29T00:48:41.799Z,2387.00
2023-03-29T00:49:41.811Z,2388.00
2023-03-29T00:50:41.856Z,2391.00
2023-03-29T00:51:41.878Z,2391.00
2023-03-29T00:52:41.928Z,2392.00
2023-03-29T00:53:42.614Z,2383.00
2023-03-29T00:54:42.001Z,2385.00
2023-03-29T00:55:42.000Z,2385.00
2023-03-29T00:56:42.050Z,2389.00
2023-03-29T00:57:42.035Z,2384.00
2023-03-29T00:58:42.043Z,2387.00
2023-03-29T00:59:42.058Z,2381.00
2023-03-29T01:00:42.054Z,2379.00
2023-03-29T01:01:42.206Z,2380.00
2023-03-29T01:02:42.067Z,2377.00
2023-03-29T01:03:42.090Z,2380.00
2023-03-29T01:04:42.017Z,2372.00
2023-03-29T01:05:42.041Z,2370.00
2023-03-29T01:06:42.115Z,2373.00
2023-03-29T01:07:42.089Z,2373.00
2023-03-29T01:08:42.119Z,2370.00
2023-03-29T01:09:42.136Z,2372.00
2023-03-29T01:10:42.171Z,2366.00
2023-03-29T01:11:42.325Z,2362.00
2023-03-29T01:12:42.195Z,2356.00
2023-03-29T01:13:42.197Z,2357.00
2023-03-29T01:14:42.191Z,2370.00
2023-03-29T01:15:42.187Z,2370.00
2023-03-29T01:16:42.207Z,2353.00
2023-03-29T01:17:42.205Z,2355.00
2023-03-29T01:18:42.190Z,2357.00
2023-03-29T01:19:43.119Z,2357.00
2023-03-29T01:20:42.175Z,2349.00
2023-03-29T01:21:42.232Z,2352.00
2023-03-29T01:22:42.245Z,2353.00
2023-03-29T01:23:42.224Z,2353.00
2023-03-29T01:24:42.263Z,2353.00
2023-03-29T01:25:42.232Z,2347.00
2023-03-29T01:26:42.260Z,2350.00
2023-03-29T01:27:42.258Z,2348.00
2023-03-29T01:28:42.255Z,2347.00
2023-03-29T01:29:42.271Z,2338.00
2023-03-29T01:30:42.293Z,2344.00
2023-03-29T01:31:42.330Z,2345.00
2023-03-29T01:32:42.346Z,2337.00
2023-03-29T01:33:42.309Z,2342.00
2023-03-29T01:34:42.306Z,2347.00
2023-03-29T01:35:42.308Z,2345.00
2023-03-29T01:36:42.275Z,2345.00
2023-03-29T01:37:42.269Z,2342.00
2023-03-29T01:38:42.276Z,2332.00
2023-03-29T01:39:42.270Z,2337.00
2023-03-29T01:40:42.301Z,2335.00
2023-03-29T01:41:42.288Z,2334.00
2023-03-29T01:42:42.281Z,2332.00
2023-03-29T01:43:42.295Z,2324.00
2023-03-29T01:44:42.318Z,2322.00
2023-03-29T01:45:42.318Z,2320.00
2023-03-29T01:46:42.302Z,2321.00
2023-03-29T01:47:42.356Z,2321.00
2023-03-29T01:48:42.316Z,2321.00
2023-03-29T01:49:42.362Z,2320.00
2023-03-29T01:50:42.289Z,2327.00
2023-03-29T01:51:42.306Z,2321.00
2023-03-29T01:52:42.362Z,2324.00
2023-03-29T01:53:42.393Z,2327.00
2023-03-29T01:54:42.443Z,2324.00
2023-03-29T01:55:42.460Z,2324.00
2023-03-29T01:56:42.530Z,2321.00
2023-03-29T01:57:42.554Z,2318.00
2023-03-29T01:58:42.721Z,2313.00
2023-03-29T01:59:42.684Z,2311.00
2023-03-29T02:00:43.629Z,2305.00
2023-03-29T02:01:42.835Z,2302.00
2023-03-29T02:02:42.948Z,2297.00
2023-03-29T02:03:42.929Z,2297.00
2023-03-29T02:04:42.860Z,2297.00
2023-03-29T02:05:42.905Z,2301.00
2023-03-29T02:06:42.959Z,2300.00
2023-03-29T02:07:43.000Z,2296.00
2023-03-29T02:08:43.011Z,2293.00
2023-03-29T02:09:43.044Z,2290.00
2023-03-29T02:10:43.060Z,2290.00
2023-03-29T02:11:43.100Z,2280.00
2023-03-29T02:12:43.175Z,2283.00
2023-03-29T02:13:43.154Z,2283.00
2023-03-29T02:14:43.200Z,2271.00
2023-03-29T02:15:43.272Z,2278.00
2023-03-29T02:16:43.298Z,2273.00
2023-03-29T02:17:43.382Z,2272.00
2023-03-29T02:18:43.410Z,2274.00
2023-03-29T02:19:43.472Z,2272.00
2023-03-29T02:20:43.508Z,2273.00
2023-03-29T02:21:43.560Z,2268.00
2023-03-29T02:22:43.680Z,2266.00
2023-03-29T02:23:43.647Z,2267.00
2023-03-29T02:24:43.696Z,2266.00
2023-03-29T02:25:43.753Z,2261.00
2023-03-29T02:26:43.799Z,2259.00
2023-03-29T02:27:43.865Z,2261.00
2023-03-29T02:28:43.907Z,2262.00
2023-03-29T02:29:43.930Z,2265.00
2023-03-29T02:30:43.998Z,2263.00
2023-03-29T02:31:44.050Z,2256.00
2023-03-29T02:32:44.135Z,2253.00
2023-03-29T02:33:44.151Z,2246.00
2023-03-29T02:34:44.189Z,2244.00
2023-03-29T02:35:45.199Z,2247.00
2023-03-29T02:36:44.273Z,2245.00
2023-03-29T02:37:44.316Z,2242.00
2023-03-29T02:38:44.370Z,2241.00
2023-03-29T02:39:44.414Z,2236.00
2023-03-29T02:40:44.454Z,2234.00
2023-03-29T02:41:44.512Z,2244.00
2023-03-29T02:42:45.133Z,2238.00
2023-03-29T02:43:44.599Z,2235.00
2023-03-29T02:44:44.630Z,2235.00
2023-03-29T02:45:44.681Z,2238.00
2023-03-29T02:46:44.745Z,2240.00
2023-03-29T02:47:44.778Z,2237.00
2023-03-29T02:48:44.824Z,2235.00
2023-03-29T02:49:44.865Z,2234.00
2023-03-29T02:50:44.915Z,2230.00
2023-03-29T02:51:44.962Z,2231.00
2023-03-29T02:52:45.018Z,2231.00
2023-03-29T02:53:45.064Z,2226.00
2023-03-29T02:54:45.104Z,2231.00
2023-03-29T02:55:45.141Z,2229.00
2023-03-29T02:56:45.251Z,2242.00
2023-03-29T02:57:45.232Z,2230.00
2023-03-29T02:58:45.253Z,2234.00
2023-03-29T02:59:45.287Z,2237.00
2023-03-29T03:00:45.313Z,2239.00
2023-03-29T03:01:45.410Z,2235.00
2023-03-29T03:02:45.419Z,2230.00
2023-03-29T03:03:45.558Z,2229.00
2023-03-29T03:04:45.495Z,2227.00
2023-03-29T03:05:45.532Z,2225.00
2023-03-29T03:06:45.593Z,2223.00
2023-03-29T03:07:45.622Z,2226.00
2023-03-29T03:08:45.674Z,2215.00
2023-03-29T03:09:45.722Z,2209.00
2023-03-29T03:10:45.779Z,2205.00
2023-03-29T03:11:45.835Z,2205.00
2023-03-29T03:12:45.871Z,2208.00
2023-03-29T03:13:45.920Z,2194.00
2023-03-29T03:14:45.968Z,2202.00
2023-03-29T03:15:46.009Z,2200.00
2023-03-29T03:16:46.141Z,2198.00
2023-03-29T03:17:46.126Z,2198.00
2023-03-29T03:18:46.170Z,2194.00
2023-03-29T03:19:46.217Z,2197.00
2023-03-29T03:20:46.252Z,2196.00
2023-03-29T03:21:46.300Z,2200.00
2023-03-29T03:22:46.351Z,2202.00
2023-03-29T03:23:46.393Z,2204.00
2023-03-29T03:24:46.461Z,2203.00
2023-03-29T03:25:46.498Z,2201.00
2023-03-29T03:26:46.557Z,2201.00
2023-03-29T03:27:46.588Z,2196.00
2023-03-29T03:28:46.641Z,2191.00
2023-03-29T03:29:46.688Z,2188.00
2023-03-29T03:30:46.741Z,2185.00
2023-03-29T03:31:46.812Z,2170.00
2023-03-29T03:32:46.857Z,2172.00
2023-03-29T03:33:46.882Z,2171.00
2023-03-29T03:34:46.930Z,2165.00
2023-03-29T03:35:46.981Z,2172.00
2023-03-29T03:36:47.037Z,2170.00
2023-03-29T03:37:47.063Z,2172.00
2023-03-29T03:38:47.117Z,2169.00
2023-03-29T03:39:47.179Z,2172.00
2023-03-29T03:40:47.216Z,2175.00
2023-03-29T03:41:47.276Z,2179.00
2023-03-29T03:42:47.315Z,2174.00
2023-03-29T03:43:47.373Z,2181.00
2023-03-29T03:44:47.428Z,2175.00
2023-03-29T03:45:47.570Z,2171.00
2023-03-29T03:46:47.527Z,2167.00
2023-03-29T03:47:47.608Z,2163.00
2023-03-29T03:48:47.640Z,2154.00
2023-03-29T03:49:47.659Z,2160.00
2023-03-29T03:50:47.715Z,2163.00
2023-03-29T03:51:47.764Z,2164.00
2023-03-29T03:52:47.809Z,2163.00
2023-03-29T03:53:47.872Z,2158.00
2023-03-29T03:54:47.913Z,2154.00
2023-03-29T03:55:47.973Z,2153.00
2023-03-29T03:56:48.038Z,2152.00
2023-03-29T03:57:48.132Z,2150.00
2023-03-29T03:58:49.668Z,2145.00
2023-03-29T03:59:48.168Z,2129.00
2023-03-29T04:00:48.221Z,2133.00
2023-03-29T04:01:48.289Z,2133.00
2023-03-29T04:02:48.426Z,2127.00
2023-03-29T04:03:48.478Z,2127.00
2023-03-29T04:04:48.404Z,2129.00
2023-03-29T04:05:48.451Z,2141.00
2023-03-29T04:06:48.493Z,2130.00
2023-03-29T04:07:48.550Z,2127.00
2023-03-29T04:08:48.590Z,2126.00
2023-03-29T04:09:48.647Z,2122.00
2023-03-29T04:10:48.681Z,2127.00
2023-03-29T04:11:48.729Z,2127.00
2023-03-29T04:12:48.780Z,2124.00
2023-03-29T04:13:48.815Z,2117.00
2023-03-29T04:14:49.172Z,2118.00
2023-03-29T04:15:48.954Z,2115.00
2023-03-29T04:16:48.955Z,2116.00
2023-03-29T04:17:49.122Z,2113.00
2023-03-29T04:18:49.698Z,2109.00
2023-03-29T04:19:49.104Z,2106.00
2023-03-29T04:20:49.149Z,2104.00
2023-03-29T04:21:49.212Z,2095.00
2023-03-29T04:22:50.163Z,2086.00
2023-03-29T04:23:49.297Z,2086.00
2023-03-29T04:24:49.352Z,2092.00
2023-03-29T04:25:49.391Z,2102.00
2023-03-29T04:26:49.432Z,2096.00
2023-03-29T04:27:49.508Z,2098.00
2023-03-29T04:28:51.172Z,2100.00
2023-03-29T04:29:49.597Z,2091.00
2023-03-29T04:30:49.680Z,2084.00
2023-03-29T04:31:49.760Z,2087.00
2023-03-29T04:32:49.794Z,2088.00
2023-03-29T04:33:49.789Z,2085.00
2023-03-29T04:34:49.836Z,2080.00
2023-03-29T04:35:49.926Z,2075.00
2023-03-29T04:36:49.919Z,2077.00
2023-03-29T04:37:49.955Z,2080.00
2023-03-29T04:38:49.987Z,2080.00
2023-03-29T04:39:50.031Z,2087.00
2023-03-29T04:40:50.075Z,2080.00
2023-03-29T04:41:50.126Z,2075.00
2023-03-29T04:42:50.173Z,2071.00
2023-03-29T04:43:50.685Z,2076.00
2023-03-29T04:44:50.312Z,2079.00
2023-03-29T04:45:50.338Z,2075.00
2023-03-29T04:46:50.406Z,2072.00
2023-03-29T04:47:50.419Z,2071.00
2023-03-29T04:48:50.446Z,2069.00
2023-03-29T04:49:50.485Z,2065.00
2023-03-29T04:50:50.524Z,2067.00
2023-03-29T04:51:50.584Z,2075.00
2023-03-29T04:52:50.623Z,2076.00
2023-03-29T04:53:50.665Z,2078.00
2023-03-29T04:54:50.719Z,2071.00
2023-03-29T04:55:51.678Z,2070.00
2023-03-29T04:56:50.878Z,2068.00
2023-03-29T04:57:50.863Z,2067.00
2023-03-29T04:58:50.919Z,2059.00
2023-03-29T04:59:50.967Z,2063.00
2023-03-29T05:00:51.009Z,2061.00
2023-03-29T05:01:51.104Z,2063.00
2023-03-29T05:02:51.171Z,2059.00
2023-03-29T05:03:51.199Z,2061.00
2023-03-29T05:04:51.220Z,2060.00
2023-03-29T05:05:51.276Z,2065.00
2023-03-29T05:06:52.184Z,2060.00
2023-03-29T05:07:51.355Z,2059.00
2023-03-29T05:08:51.418Z,2056.00
2023-03-29T05:09:51.444Z,2060.00
2023-03-29T05:10:51.502Z,2058.00
2023-03-29T05:11:51.546Z,2056.00
2023-03-29T05:12:51.603Z,2048.00
2023-03-29T05:13:51.638Z,2047.00
2023-03-29T05:14:51.718Z,2045.00
2023-03-29T05:15:51.780Z,2045.00
2023-03-29T05:16:51.787Z,2044.00
2023-03-29T05:17:51.903Z,2041.00
2023-03-29T05:18:51.879Z,2032.00
2023-03-29T05:19:51.951Z,2035.00
2023-03-29T05:20:51.973Z,2033.00
2023-03-29T05:21:52.012Z,2030.00
2023-03-29T05:22:52.057Z,2007.00
2023-03-29T05:23:52.096Z,1987.00
2023-03-29T05:24:52.146Z,1975.00
2023-03-29T05:25:52.189Z,1985.00
2023-03-29T05:26:52.247Z,1994.00
2023-03-29T05:27:52.274Z,2016.00
2023-03-29T05:28:52.292Z,2009.00
2023-03-29T05:29:52.313Z,2014.00
2023-03-29T05:30:52.308Z,2012.00
2023-03-29T05:31:52.500Z,2015.00
2023-03-29T05:32:52.409Z,2006.00
2023-03-29T05:33:52.384Z,1990.00
2023-03-29T05:34:52.413Z,1940.00
2023-03-29T05:35:52.557Z,1924.00
2023-03-29T05:36:52.498Z,1927.00
2023-03-29T05:37:52.567Z,1935.00
2023-03-29T05:38:52.548Z,1938.00
2023-03-29T05:39:52.756Z,1942.00
2023-03-29T05:40:52.704Z,1949.00
2023-03-29T05:41:52.667Z,1948.00
2023-03-29T05:42:52.701Z,1949.00
2023-03-29T05:43:52.759Z,1953.00
2023-03-29T05:44:54.485Z,1960.00
2023-03-29T05:45:52.871Z,1960.00
2023-03-29T05:46:52.860Z,1957.00
2023-03-29T05:47:52.956Z,1952.00
2023-03-29T05:48:52.937Z,1948.00
2023-03-29T05:49:52.981Z,1943.00
2023-03-29T05:50:53.027Z,1940.00
2023-03-29T05:51:53.063Z,1941.00
2023-03-29T05:52:53.138Z,1937.00
2023-03-29T05:53:53.158Z,1941.00
2023-03-29T05:54:54.110Z,1938.00
2023-03-29T05:55:53.236Z,1943.00
2023-03-29T05:56:53.326Z,1947.00
2023-03-29T05:57:53.324Z,1953.00
2023-03-29T05:58:54.960Z,1953.00
2023-03-29T05:59:53.434Z,1958.00
2023-03-29T06:00:53.458Z,1963.00
2023-03-29T06:01:53.549Z,1957.00
2023-03-29T06:02:53.584Z,1952.00
2023-03-29T06:03:53.687Z,1958.00
2023-03-29T06:04:53.627Z,1957.00
2023-03-29T06:05:53.640Z,1953.00
2023-03-29T06:06:53.659Z,1944.00
2023-03-29T06:07:53.707Z,1949.00
2023-03-29T06:08:53.755Z,1947.00
2023-03-29T06:09:53.789Z,1935.00
2023-03-29T06:10:53.845Z,1940.00
2023-03-29T06:11:53.878Z,1938.00
2023-03-29T06:12:53.924Z,1942.00
2023-03-29T06:13:53.977Z,1945.00
2023-03-29T06:14:54.021Z,1939.00
2023-03-29T06:15:54.071Z,1943.00
2023-03-29T06:16:54.142Z,1937.00
2023-03-29T06:17:54.228Z,1935.00
2023-03-29T06:18:54.201Z,1935.00
2023-03-29T06:19:54.224Z,1928.00
2023-03-29T06:20:54.386Z,1931.00
2023-03-29T06:21:54.275Z,1931.00
2023-03-29T06:22:54.302Z,1932.00
2023-03-29T06:23:54.356Z,1930.00
2023-03-29T06:24:54.404Z,1929.00
2023-03-29T06:25:54.444Z,1928.00
2023-03-29T06:26:54.490Z,1954.00
2023-03-29T06:27:54.546Z,2003.00
2023-03-29T06:28:54.581Z,2009.00
2023-03-29T06:29:54.607Z,2015.00
2023-03-29T06:30:54.691Z,2073.00
2023-03-29T06:31:54.658Z,2145.00
2023-03-29T06:32:55.685Z,2184.00
2023-03-29T06:33:54.661Z,2219.00
2023-03-29T06:34:54.655Z,2280.00
2023-03-29T06:35:54.712Z,2264.00
2023-03-29T06:36:54.630Z,2285.00
2023-03-29T06:37:54.858Z,2339.00
2023-03-29T06:38:54.754Z,2383.00
2023-03-29T06:39:54.817Z,2411.00
2023-03-29T06:40:54.851Z,2445.00
2023-03-29T06:41:54.861Z,2476.00
2023-03-29T06:42:54.889Z,2499.00
2023-03-29T06:43:55.071Z,2537.00
2023-03-29T06:44:54.955Z,2610.00
2023-03-29T06:45:55.044Z,2624.00
2023-03-29T06:46:55.051Z,2640.00
2023-03-29T06:47:55.068Z,2687.00
2023-03-29T06:48:55.047Z,2714.00
2023-03-29T06:49:55.063Z,2733.00
2023-03-29T06:50:55.063Z,2759.00
2023-03-29T06:51:55.074Z,2800.00
2023-03-29T06:52:55.076Z,2858.00
2023-03-29T06:53:55.085Z,2869.00
2023-03-29T06:54:55.093Z,2898.00
2023-03-29T06:55:55.185Z,2907.00
2023-03-29T06:56:55.178Z,2929.00
2023-03-29T06:57:55.055Z,2966.00
2023-03-29T06:58:55.052Z,3018.00
2023-03-29T06:59:55.200Z,3055.00
2023-03-29T07:00:55.037Z,3078.00
2023-03-29T07:01:55.090Z,3098.00
2023-03-29T07:02:55.080Z,3138.00
2023-03-29T07:03:55.006Z,3144.00
2023-03-29T07:04:54.947Z,3180.00
2023-03-29T07:05:54.936Z,3217.00
2023-03-29T07:06:54.910Z,3243.00
2023-03-29T07:07:54.886Z,3272.00
2023-03-29T07:08:54.868Z,3294.00
2023-03-29T07:09:54.848Z,3329.00
2023-03-29T07:10:54.820Z,3351.00
2023-03-29T07:11:54.770Z,3395.00
2023-03-29T07:12:54.757Z,3449.00
2023-03-29T07:13:54.723Z,3467.00
2023-03-29T07:14:54.745Z,3500.00
2023-03-29T07:15:54.668Z,3566.00
2023-03-29T07:16:54.613Z,3569.00
2023-03-29T07:17:55.271Z,3586.00
2023-03-29T07:18:54.527Z,3651.00
2023-03-29T07:19:54.499Z,3659.00
2023-03-29T07:20:54.459Z,3656.00
2023-03-29T07:21:54.436Z,3641.00
2023-03-29T07:22:54.419Z,3659.00
2023-03-29T07:23:54.375Z,3717.00
2023-03-29T07:24:54.354Z,3734.00
2023-03-29T07:25:54.329Z,3740.00
2023-03-29T07:27:54.240Z,3796.00
2023-03-29T07:28:54.179Z,3812.00
2023-03-29T07:29:54.140Z,3833.00
2023-03-29T07:30:54.100Z,3894.00
2023-03-29T07:31:54.021Z,3907.00
2023-03-29T07:32:53.991Z,3962.00
2023-03-29T07:33:53.925Z,3972.00
2023-03-29T07:34:53.858Z,3979.00
2023-03-29T07:35:53.854Z,4025.00
2023-03-29T07:36:53.768Z,4048.00
2023-03-29T07:37:53.688Z,4109.00
2023-03-29T07:38:56.374Z,4129.00
2023-03-29T07:39:53.582Z,4151.00
2023-03-29T07:40:53.526Z,4183.00
2023-03-29T07:41:53.479Z,4218.00
2023-03-29T07:42:53.421Z,4265.00
2023-03-29T07:43:53.373Z,4288.00
2023-03-29T07:44:53.324Z,4315.00
2023-03-29T07:45:53.314Z,4356.00
2023-03-29T07:46:53.217Z,4384.00
2023-03-29T07:47:53.797Z,4396.00
2023-03-29T07:48:53.099Z,4418.00
2023-03-29T07:49:53.060Z,4436.00
2023-03-29T07:50:52.996Z,4487.00
2023-03-29T07:51:52.959Z,4526.00
2023-03-29T07:52:52.902Z,4551.00
2023-03-29T07:53:52.845Z,4560.00
2023-03-29T07:54:52.814Z,4614.00
2023-03-29T07:55:52.737Z,4641.00
2023-03-29T07:56:52.735Z,4687.00
2023-03-29T07:57:52.627Z,4692.00
2023-03-29T07:58:52.573Z,4720.00
2023-03-29T07:59:52.574Z,4734.00
2023-03-29T08:00:52.445Z,4779.00
2023-03-29T08:01:52.389Z,4788.00
2023-03-29T08:02:52.405Z,4817.00
2023-03-29T08:03:52.406Z,4844.00
2023-03-29T08:04:52.231Z,4895.00
2023-03-29T08:05:52.138Z,4916.00
2023-03-29T08:06:52.081Z,4929.00
2023-03-29T08:07:52.023Z,4954.00
2023-03-29T08:08:51.958Z,4989.00
2023-03-29T08:09:51.902Z,5010.00
2023-03-29T08:10:52.733Z,5050.00
2023-03-29T08:11:51.770Z,5096.00
2023-03-29T08:12:52.675Z,5122.00
2023-03-29T08:13:51.665Z,5030.00
2023-03-29T08:14:52.236Z,5060.00
2023-03-29T08:15:51.513Z,4772.00
2023-03-29T08:16:51.490Z,4317.00
2023-03-29T08:17:51.456Z,3262.00
2023-03-29T08:18:51.350Z,3253.00
2023-03-29T08:19:52.032Z,3320.00
2023-03-29T08:20:51.212Z,3211.00
2023-03-29T08:21:51.160Z,3143.00
2023-03-29T08:22:51.105Z,2443.00
2023-03-29T08:23:51.067Z,2077.00
2023-03-29T08:24:51.056Z,1891.00
2023-03-29T08:25:51.041Z,1547.00
2023-03-29T08:26:51.071Z,1481.00
2023-03-29T08:27:52.750Z,1364.00
2023-03-29T08:28:51.128Z,1352.00
2023-03-29T08:29:51.043Z,1592.00
2023-03-29T08:30:51.068Z,1587.00
2023-03-29T08:31:51.022Z,1660.00
2023-03-29T08:32:53.607Z,1614.00
2023-03-29T08:33:51.019Z,1687.00
2023-03-29T08:34:50.979Z,1711.00
2023-03-29T08:35:50.964Z,1750.00
2023-03-29T08:36:50.915Z,1854.00
2023-03-29T08:37:50.873Z,1912.00
2023-03-29T08:38:50.837Z,1941.00
2023-03-29T08:39:50.790Z,1978.00
2023-03-29T08:40:50.750Z,2005.00
2023-03-29T08:41:50.716Z,2039.00
2023-03-29T08:42:50.702Z,2102.00
2023-03-29T08:43:50.605Z,2123.00
2023-03-29T08:44:50.546Z,2149.00
2023-03-29T08:45:51.210Z,2188.00
2023-03-29T08:46:50.487Z,2205.00
2023-03-29T08:47:50.435Z,2240.00
2023-03-29T08:48:50.408Z,2284.00
2023-03-29T08:49:50.306Z,2343.00
2023-03-29T08:50:50.255Z,2351.00
2023-03-29T08:51:51.664Z,2365.00
2023-03-29T08:52:50.144Z,2379.00
2023-03-29T08:53:50.085Z,2399.00
2023-03-29T08:54:50.029Z,2403.00
2023-03-29T08:55:49.979Z,2414.00
2023-03-29T08:56:49.927Z,2460.00
2023-03-29T08:57:49.865Z,2493.00
2023-03-29T08:58:49.784Z,2497.00
2023-03-29T08:59:49.731Z,2547.00
2023-03-29T09:00:49.675Z,2554.00
2023-03-29T09:01:49.635Z,2561.00
2023-03-29T09:02:49.607Z,2665.00
2023-03-29T09:03:49.585Z,2678.00
2023-03-29T09:04:50.452Z,2693.00
2023-03-29T09:05:49.400Z,2686.00
2023-03-29T09:06:50.257Z,2707.00
2023-03-29T09:07:49.279Z,2747.00
2023-03-29T09:08:49.225Z,2790.00
2023-03-29T09:09:49.177Z,2795.00
2023-03-29T09:10:49.115Z,2818.00
2023-03-29T09:11:49.066Z,2856.00
2023-03-29T09:12:49.035Z,2625.00
2023-03-29T09:13:48.965Z,2089.00
2023-03-29T09:14:48.896Z,1946.00
2023-03-29T09:15:48.849Z,2010.00
2023-03-29T09:16:48.814Z,1989.00
2023-03-29T09:17:49.806Z,2121.00
2023-03-29T09:18:48.817Z,2103.00
2023-03-29T09:19:48.818Z,2103.00
2023-03-29T09:20:48.891Z,2119.00
2023-03-29T09:21:48.810Z,2206.00
2023-03-29T09:22:48.812Z,2232.00
2023-03-29T09:23:48.818Z,2247.00
2023-03-29T09:24:48.833Z,2247.00
2023-03-29T09:25:53.394Z,2253.00
2023-03-29T09:26:49.777Z,2255.00
2023-03-29T09:27:48.724Z,2262.00
2023-03-29T09:28:48.676Z,2269.00
2023-03-29T09:29:48.615Z,2272.00
2023-03-29T09:30:48.603Z,2268.00
2023-03-29T09:31:48.549Z,2266.00
2023-03-29T09:32:48.497Z,2266.00
2023-03-29T09:33:48.423Z,2280.00
2023-03-29T09:34:48.379Z,2272.00
2023-03-29T09:35:48.353Z,2267.00
2023-03-29T09:36:48.344Z,2266.00
2023-03-29T09:37:48.339Z,2269.00
2023-03-29T09:38:48.367Z,2273.00
2023-03-29T09:39:49.273Z,2269.00
2023-03-29T09:40:48.415Z,2274.00
2023-03-29T09:41:48.399Z,2274.00
2023-03-29T09:42:48.412Z,2272.00
2023-03-29T09:43:48.431Z,2262.00
2023-03-29T09:44:48.469Z,2256.00
2023-03-29T09:45:48.521Z,2259.00
2023-03-29T09:46:48.518Z,2260.00
2023-03-29T09:47:48.586Z,2251.00
2023-03-29T09:48:48.556Z,2233.00
2023-03-29T09:49:48.591Z,2237.00
2023-03-29T09:50:48.610Z,2251.00
2023-03-29T09:51:48.618Z,2256.00
2023-03-29T09:52:48.652Z,2253.00
2023-03-29T09:53:48.684Z,2256.00
2023-03-29T09:54:48.705Z,2256.00
2023-03-29T09:55:50.358Z,2266.00
2023-03-29T09:56:48.839Z,2270.00
2023-03-29T09:57:48.776Z,2263.00
2023-03-29T09:58:48.828Z,2262.00
2023-03-29T09:59:48.816Z,2260.00
2023-03-29T10:00:48.908Z,2266.00
2023-03-29T10:01:48.946Z,2252.00
2023-03-29T10:02:48.989Z,2255.00
2023-03-29T10:03:49.016Z,2256.00
2023-03-29T10:04:48.936Z,2253.00
2023-03-29T10:05:48.892Z,2261.00
2023-03-29T10:06:48.880Z,2265.00
2023-03-29T10:07:48.836Z,2256.00
2023-03-29T10:08:48.800Z,2250.00
2023-03-29T10:09:48.756Z,2249.00
2023-03-29T10:10:48.718Z,2248.00
2023-03-29T10:11:48.678Z,2248.00
2023-03-29T10:12:48.641Z,2248.00
2023-03-29T10:13:48.659Z,2245.00
2023-03-29T10:14:49.490Z,2247.00
2023-03-29T10:15:48.718Z,2251.00
2023-03-29T10:16:48.859Z,2246.00
2023-03-29T10:17:48.865Z,2245.00
2023-03-29T10:18:48.819Z,2250.00
2023-03-29T10:19:48.849Z,2248.00
2023-03-29T10:20:48.880Z,2244.00
2023-03-29T10:21:48.908Z,2247.00
2023-03-29T10:22:48.917Z,2248.00
2023-03-29T10:23:48.947Z,2242.00
2023-03-29T10:24:48.973Z,2241.00
2023-03-29T10:25:48.983Z,2240.00
2023-03-29T10:26:48.979Z,2242.00
2023-03-29T10:27:49.009Z,2242.00
2023-03-29T10:28:49.010Z,2238.00
2023-03-29T10:29:49.046Z,2230.00
2023-03-29T10:30:49.050Z,2234.00
2023-03-29T10:31:49.106Z,2237.00
2023-03-29T10:32:49.136Z,2234.00
2023-03-29T10:33:49.131Z,2232.00
2023-03-29T10:34:49.141Z,2230.00
2023-03-29T10:35:49.196Z,2222.00
2023-03-29T10:36:49.124Z,2235.00
2023-03-29T10:37:49.127Z,2225.00
2023-03-29T10:38:49.163Z,2217.00
2023-03-29T10:39:49.227Z,2221.00
2023-03-29T10:40:49.190Z,2215.00
2023-03-29T10:41:49.183Z,2216.00
2023-03-29T10:42:49.177Z,2216.00
2023-03-29T10:43:49.209Z,2217.00
2023-03-29T10:44:49.186Z,2216.00
2023-03-29T10:45:49.306Z,2219.00
2023-03-29T10:46:49.202Z,2223.00
2023-03-29T10:47:49.216Z,2230.00
2023-03-29T10:48:49.213Z,2221.00
2023-03-29T10:49:50.874Z,2211.00
2023-03-29T10:50:49.704Z,2207.00
2023-03-29T10:51:49.162Z,2204.00
2023-03-29T10:52:49.155Z,2210.00
2023-03-29T10:53:49.169Z,2216.00
2023-03-29T10:54:49.153Z,2210.00
2023-03-29T10:55:49.142Z,2207.00
2023-03-29T10:56:50.824Z,2209.00
2023-03-29T10:57:49.109Z,2210.00
2023-03-29T10:58:49.094Z,2208.00
2023-03-29T10:59:49.046Z,2212.00
2023-03-29T11:00:49.001Z,2212.00
2023-03-29T11:01:48.994Z,2214.00
2023-03-29T11:02:49.034Z,2209.00
2023-03-29T11:03:49.036Z,2202.00
2023-03-29T11:04:48.897Z,2195.00
2023-03-29T11:05:48.855Z,2197.00
2023-03-29T11:06:48.796Z,2199.00
2023-03-29T11:07:48.767Z,2201.00
2023-03-29T11:08:48.745Z,2201.00
2023-03-29T11:09:48.716Z,2203.00
2023-03-29T11:10:48.651Z,2198.00
2023-03-29T11:11:48.610Z,2192.00
2023-03-29T11:12:48.577Z,2188.00
2023-03-29T11:13:48.542Z,2186.00
2023-03-29T11:14:48.502Z,2187.00
2023-03-29T11:15:48.525Z,2181.00
2023-03-29T11:16:48.436Z,2177.00
2023-03-29T11:17:48.423Z,2183.00
2023-03-29T11:18:48.363Z,2179.00
2023-03-29T11:19:48.316Z,2178.00
2023-03-29T11:20:48.277Z,2179.00
2023-03-29T11:21:48.247Z,2179.00
2023-03-29T11:22:48.209Z,2179.00
2023-03-29T11:23:48.180Z,2180.00
2023-03-29T11:24:48.795Z,2171.00
2023-03-29T11:25:48.112Z,2169.00
2023-03-29T11:26:48.059Z,2174.00
2023-03-29T11:27:48.027Z,2174.00
2023-03-29T11:28:48.001Z,2172.00
2023-03-29T11:29:47.954Z,2169.00
2023-03-29T11:30:48.151Z,2167.00
2023-03-29T11:31:47.973Z,2165.00
2023-03-29T11:32:47.914Z,2163.00
2023-03-29T11:33:47.811Z,2161.00
2023-03-29T11:34:47.770Z,2161.00
2023-03-29T11:35:47.766Z,2158.00
2023-03-29T11:36:47.700Z,2157.00
2023-03-29T11:37:47.670Z,2155.00
2023-03-29T11:38:47.630Z,2163.00
2023-03-29T11:39:47.585Z,2166.00
2023-03-29T11:40:47.560Z,2162.00
2023-03-29T11:41:47.523Z,2163.00
2023-03-29T11:42:47.498Z,2164.00
2023-03-29T11:43:47.470Z,2157.00
2023-03-29T11:44:47.459Z,2161.00
2023-03-29T11:45:47.459Z,2162.00
2023-03-29T11:46:47.382Z,2160.00
2023-03-29T11:47:47.353Z,2163.00
2023-03-29T11:48:47.270Z,2168.00
2023-03-29T11:49:47.223Z,2167.00
2023-03-29T11:50:47.238Z,2169.00
2023-03-29T11:51:47.196Z,2164.00
2023-03-29T11:52:47.190Z,2163.00
2023-03-29T11:53:47.145Z,2158.00
2023-03-29T11:54:47.122Z,2159.00
2023-03-29T11:55:47.102Z,2160.00
2023-03-29T11:56:47.109Z,2154.00
2023-03-29T11:57:47.064Z,2155.00
2023-03-29T11:58:47.029Z,2152.00
2023-03-29T11:59:46.999Z,2155.00
2023-03-29T12:00:46.970Z,2152.00
2023-03-29T12:01:46.941Z,2146.00
2023-03-29T12:02:47.116Z,2140.00
2023-03-29T12:03:47.451Z,2136.00
2023-03-29T12:04:47.023Z,2140.00
2023-03-29T12:05:46.985Z,2140.00
2023-03-29T12:06:46.974Z,2146.00